Time;durP1;ratioP1;P1;durP2;ratioP2;P2;SDS_P1;SDS_P2;PMS_P1;PMS_P2;Temp;Humidity;BMP_temperature;BMP_pressure;BME280_temperature;BME280_humidity;BME280_pressure;Samples;Min_cycle;Max_cycle;Signal;HPM_P1;HPM_P2
2022/08/23 00:01:19;;;;;;;5.00;2.67;;;21.50;60.00;;;;;;5096229;28;20377;-38
2022/08/23 00:03:45;;;;;;;4.40;3.00;;;21.50;60.10;;;;;;5096470;28;20476;-38
2022/08/23 00:06:11;;;;;;;5.78;3.70;;;21.50;60.10;;;;;;5096374;28;20078;-38
2022/08/23 00:08:38;;;;;;;5.72;2.30;;;21.50;60.20;;;;;;5096096;28;20032;-38
2022/08/23 00:11:04;;;;;;;3.72;2.33;;;21.50;60.20;;;;;;5096141;28;20123;-38
2022/08/23 00:13:32;;;;;;;7.32;2.97;;;21.50;60.20;;;;;;5096018;28;20036;-38
2022/08/23 00:15:59;;;;;;;3.22;2.05;;;21.50;60.00;;;;;;5096029;28;20028;-40
2022/08/23 00:18:25;;;;;;;5.45;2.53;;;21.50;60.10;;;;;;5095975;28;20016;-39
2022/08/23 00:20:51;;;;;;;6.97;2.67;;;21.50;60.20;;;;;;5095955;28;20111;-38
2022/08/23 00:23:17;;;;;;;5.32;2.42;;;21.50;59.90;;;;;;5096052;28;20095;-39
2022/08/23 00:25:43;;;;;;;4.18;2.58;;;21.50;59.80;;;;;;5095791;28;20108;-39
2022/08/23 00:28:09;;;;;;;5.40;3.28;;;21.60;59.80;;;;;;5094541;28;20060;-39
2022/08/23 00:30:35;;;;;;;7.82;2.88;;;21.50;59.90;;;;;;5095832;28;20041;-39
2022/08/23 00:33:01;;;;;;;4.38;2.75;;;21.50;60.10;;;;;;5095784;28;20024;-39
2022/08/23 00:35:27;;;;;;;4.85;2.67;;;21.40;60.10;;;;;;5096721;28;20025;-38
2022/08/23 00:37:55;;;;;;;6.90;3.10;;;21.40;60.30;;;;;;5096396;28;20085;-39
2022/08/23 00:40:20;;;;;;;6.00;2.92;;;21.40;60.40;;;;;;5095487;28;20044;-39
2022/08/23 00:48:51;;;;;;;3.55;2.72;;;21.20;61.30;;;;;;5074338;28;20032;-39
2022/08/23 00:51:26;;;;;;;6.82;2.67;;;21.20;61.60;;;;;;5095663;28;20464;-37
2022/08/23 00:53:56;;;;;;;9.50;3.20;;;21.10;61.70;;;;;;5095492;28;20034;-37
2022/08/23 00:56:25;;;;;;;4.80;3.03;;;21.10;61.80;;;;;;5095580;28;20051;-37
2022/08/23 00:58:50;;;;;;;11.55;3.50;;;21.00;62.00;;;;;;5093960;28;20047;-37
2022/08/23 01:01:17;;;;;;;6.97;2.58;;;20.90;62.10;;;;;;5095435;28;20028;-38
2022/08/23 01:03:48;;;;;;;6.93;2.92;;;20.90;62.40;;;;;;5093898;28;20028;-37
2022/08/23 01:06:15;;;;;;;7.45;3.00;;;20.90;62.30;;;;;;5093992;28;20024;-38
2022/08/23 01:08:47;;;;;;;6.63;3.50;;;20.80;62.60;;;;;;5095589;28;20104;-38
2022/08/23 01:11:20;;;;;;;7.32;3.10;;;20.70;63.00;;;;;;5095331;28;20031;-38
2022/08/23 01:13:55;;;;;;;7.00;3.33;;;20.70;63.20;;;;;;5095352;28;20024;-38
2022/08/23 01:16:32;;;;;;;4.60;2.53;;;20.60;63.60;;;;;;5095523;28;20020;-38
2022/08/23 01:19:00;;;;;;;8.68;3.22;;;20.50;63.90;;;;;;5095258;28;20042;-39
2022/08/23 01:21:39;;;;;;;5.03;2.45;;;20.40;64.50;;;;;;5095260;28;20032;-40
2022/08/23 01:24:06;;;;;;;6.75;3.10;;;20.30;64.80;;;;;;5095502;28;20024;-39
2022/08/23 01:26:34;;;;;;;3.45;2.95;;;20.30;65.10;;;;;;5096032;28;20153;-38
2022/08/23 01:29:00;;;;;;;8.63;3.42;;;20.20;65.30;;;;;;5095198;28;20032;-38
2022/08/23 01:31:27;;;;;;;6.93;2.53;;;20.20;65.50;;;;;;5095556;28;20505;-38
2022/08/23 01:34:23;;;;;;;5.20;2.88;;;20.20;65.60;;;;;;5095210;28;20109;-38
2022/08/23 01:36:49;;;;;;;4.95;2.70;;;20.10;65.70;;;;;;5094216;28;20054;-38
2022/08/23 01:39:14;;;;;;;3.60;3.00;;;20.20;65.90;;;;;;5095274;28;20024;-40
2022/08/23 01:41:40;;;;;;;4.72;2.97;;;20.20;65.80;;;;;;5094131;28;20127;-43
2022/08/23 01:44:07;;;;;;;7.72;3.33;;;20.20;65.80;;;;;;5096155;28;20426;-39
2022/08/23 01:46:33;;;;;;;3.97;2.60;;;20.10;65.90;;;;;;5095289;28;20024;-39
2022/08/23 01:48:59;;;;;;;2.92;2.63;;;20.00;66.20;;;;;;5093886;28;20028;-39
2022/08/23 01:51:25;;;;;;;9.45;3.47;;;20.00;66.40;;;;;;5094831;28;20073;-38
2022/08/23 01:53:51;;;;;;;5.80;2.60;;;19.90;66.70;;;;;;5094855;28;20035;-39
2022/08/23 01:56:21;;;;;;;5.28;3.20;;;19.80;66.80;;;;;;5094332;28;20106;-38
2022/08/23 01:58:48;;;;;;;6.25;2.67;;;19.80;67.00;;;;;;5094170;28;20523;-38
2022/08/23 02:01:14;;;;;;;5.25;2.83;;;19.80;67.20;;;;;;5094185;28;20032;-37
2022/08/23 02:03:40;;;;;;;7.25;3.20;;;19.80;67.30;;;;;;5094034;28;20361;-38
2022/08/23 02:06:06;;;;;;;3.70;2.50;;;19.70;67.60;;;;;;5094102;28;20020;-38
2022/08/23 02:11:21;;;;;;;6.85;3.13;;;19.70;67.80;;;;;;5094237;28;20043;-38
2022/08/23 02:13:48;;;;;;;3.85;2.58;;;19.60;68.00;;;;;;5094302;28;20032;-39
2022/08/23 02:16:25;;;;;;;5.85;3.35;;;19.60;68.20;;;;;;5094024;28;20396;-38
2022/08/23 02:18:52;;;;;;;6.47;3.50;;;19.50;68.40;;;;;;5093693;28;20028;-38
2022/08/23 02:21:18;;;;;;;10.30;3.22;;;19.50;68.40;;;;;;5093395;28;20567;-39
2022/08/23 02:23:44;;;;;;;7.68;3.25;;;19.40;68.70;;;;;;5093591;28;20383;-37
2022/08/23 02:26:09;;;;;;;6.28;3.40;;;19.40;68.90;;;;;;5093207;28;20129;-38
2022/08/23 02:28:35;;;;;;;5.30;3.67;;;19.40;69.10;;;;;;5093347;28;20028;-38
2022/08/23 02:31:01;;;;;;;4.65;3.00;;;19.40;69.20;;;;;;5093373;28;20031;-38
2022/08/23 02:33:27;;;;;;;10.38;3.40;;;19.30;69.30;;;;;;5093175;28;20461;-38
2022/08/23 02:35:52;;;;;;;6.45;3.00;;;19.30;69.40;;;;;;5093189;28;20031;-38
2022/08/23 02:38:18;;;;;;;5.80;3.75;;;19.30;69.60;;;;;;5092561;28;20101;-37
2022/08/23 02:40:44;;;;;;;4.78;3.05;;;19.30;69.80;;;;;;5093206;28;20059;-38
2022/08/23 02:43:10;;;;;;;6.28;3.55;;;19.30;69.90;;;;;;5093039;28;20417;-37
2022/08/23 02:45:36;;;;;;;7.07;3.42;;;19.20;70.10;;;;;;5093562;28;20388;-37
2022/08/23 02:48:03;;;;;;;6.40;3.88;;;19.20;70.30;;;;;;5093164;28;20017;-37
2022/08/23 02:50:29;;;;;;;4.68;3.67;;;19.10;70.40;;;;;;5093192;28;20154;-39
2022/08/23 02:52:57;;;;;;;4.97;4.00;;;19.10;70.60;;;;;;5093106;28;20028;-37
2022/08/23 02:55:22;;;;;;;6.90;3.78;;;19.10;70.70;;;;;;5092942;28;20048;-39
2022/08/23 02:57:48;;;;;;;8.45;5.15;;;19.10;70.90;;;;;;5092704;28;20074;-41
2022/08/23 03:00:15;;;;;;;7.10;4.15;;;19.10;70.90;;;;;;5093235;28;20085;-39
2022/08/23 03:02:41;;;;;;;9.43;4.35;;;19.10;70.90;;;;;;5093073;28;20032;-38
2022/08/23 03:05:09;;;;;;;7.22;4.28;;;19.20;70.90;;;;;;5093183;28;20074;-38
2022/08/23 03:07:35;;;;;;;7.05;3.80;;;19.30;70.30;;;;;;5093311;28;20020;-38
2022/08/23 03:10:01;;;;;;;5.80;3.65;;;19.20;70.50;;;;;;5092989;28;20032;-39
2022/08/23 03:12:27;;;;;;;7.78;4.80;;;19.10;70.90;;;;;;5093182;28;20028;-39
2022/08/23 03:14:53;;;;;;;5.35;3.95;;;19.00;71.30;;;;;;5092909;28;20127;-38
2022/08/23 03:17:19;;;;;;;10.00;5.38;;;18.80;71.40;;;;;;5093225;28;20472;-38
2022/08/23 03:19:45;;;;;;;7.03;3.60;;;18.80;71.70;;;;;;5093090;28;20032;-38
2022/08/23 03:22:10;;;;;;;5.65;3.92;;;18.80;72.00;;;;;;5096894;28;20054;-38
2022/08/23 03:24:36;;;;;;;7.95;4.88;;;18.70;72.20;;;;;;5096736;28;20447;-38
2022/08/23 03:27:03;;;;;;;8.63;3.95;;;18.80;72.20;;;;;;5096766;28;20020;-38
2022/08/23 03:29:30;;;;;;;6.63;4.10;;;18.70;72.30;;;;;;5097193;28;20031;-38
2022/08/23 03:31:56;;;;;;;5.55;3.80;;;18.70;72.40;;;;;;5097062;28;20028;-38
2022/08/23 03:34:22;;;;;;;7.32;3.90;;;18.70;72.50;;;;;;5096863;28;20040;-39
2022/08/23 03:36:48;;;;;;;10.68;5.18;;;18.70;72.60;;;;;;5096950;28;20051;-39
2022/08/23 03:39:13;;;;;;;9.85;4.40;;;18.70;72.70;;;;;;5096942;28;20028;-40
2022/08/23 03:41:39;;;;;;;9.50;4.07;;;18.60;72.70;;;;;;5096998;28;20028;-38
2022/08/23 03:44:05;;;;;;;6.40;4.70;;;18.60;72.80;;;;;;5096727;28;20089;-39
2022/08/23 03:46:31;;;;;;;7.00;4.25;;;18.60;72.80;;;;;;5096860;28;20016;-38
2022/08/23 03:49:00;;;;;;;8.20;4.95;;;18.60;72.80;;;;;;5096452;28;20073;-38
2022/08/23 03:51:28;;;;;;;9.85;4.43;;;18.60;72.80;;;;;;5096713;28;20043;-39
2022/08/23 03:53:54;;;;;;;5.22;3.65;;;18.50;73.00;;;;;;5097046;28;20028;-37
2022/08/23 03:56:31;;;;;;;14.85;5.78;;;18.50;73.10;;;;;;5095442;28;20115;-40
2022/08/23 03:59:00;;;;;;;10.77;3.92;;;18.50;73.30;;;;;;5096419;28;20044;-38
2022/08/23 04:01:26;;;;;;;4.57;3.63;;;18.50;73.40;;;;;;5096598;28;20092;-39
2022/08/23 04:03:52;;;;;;;11.32;4.63;;;18.40;73.60;;;;;;5096364;28;20020;-40
2022/08/23 04:06:18;;;;;;;4.47;3.45;;;18.40;73.60;;;;;;5096986;28;20368;-38
2022/08/23 04:08:44;;;;;;;4.20;3.78;;;18.40;73.70;;;;;;5097040;28;20024;-40
2022/08/23 04:11:12;;;;;;;6.35;3.70;;;18.30;73.80;;;;;;5096137;28;20149;-39
2022/08/23 18:58:27;;;;;;;4.55;2.97;;;26.50;49.10;;;;;;5130363;27;20508;-48
2022/08/23 19:00:53;;;;;;;6.90;2.03;;;26.40;49.20;;;;;;5131211;28;20031;-49
2022/08/23 19:03:19;;;;;;;7.35;2.80;;;26.40;49.10;;;;;;5131266;28;20475;-50
2022/08/23 19:05:45;;;;;;;4.95;2.70;;;26.30;49.20;;;;;;5131575;28;20054;-49
2022/08/23 19:08:12;;;;;;;3.80;2.45;;;26.40;49.10;;;;;;5131679;28;20200;-49
2022/08/23 19:10:40;;;;;;;6.95;2.60;;;26.30;49.50;;;;;;5130976;28;20061;-49
2022/08/23 19:13:07;;;;;;;7.72;3.13;;;26.30;49.40;;;;;;5131345;28;20446;-49
2022/08/23 19:15:34;;;;;;;6.05;2.40;;;26.30;49.60;;;;;;5130835;28;20019;-47
2022/08/23 19:18:00;;;;;;;5.20;3.03;;;26.30;50.10;;;;;;5131272;28;20027;-50
2022/08/23 19:20:27;;;;;;;6.90;2.80;;;26.20;50.40;;;;;;5112895;28;20359;-48
2022/08/23 19:22:54;;;;;;;10.27;3.17;;;26.20;50.90;;;;;;5131686;28;20024;-47
2022/08/23 19:25:20;;;;;;;5.88;2.72;;;26.00;51.40;;;;;;5113766;28;20374;-48
2022/08/23 19:27:46;;;;;;;10.32;2.58;;;25.90;51.70;;;;;;5112603;28;20127;-48
2022/08/23 19:30:14;;;;;;;4.50;2.08;;;25.80;51.60;;;;;;5130714;28;20102;-48
2022/08/23 19:32:40;;;;;;;4.70;2.72;;;25.70;51.70;;;;;;5113039;28;20029;-49
2022/08/23 19:35:07;;;;;;;11.70;3.80;;;25.70;51.90;;;;;;5112487;28;20066;-48
2022/08/23 19:37:33;;;;;;;5.93;2.30;;;25.60;52.30;;;;;;5130376;28;20047;-49
2022/08/23 19:39:59;;;;;;;6.60;2.35;;;25.60;52.60;;;;;;5117551;28;20059;-51
2022/08/23 19:42:25;;;;;;;5.95;3.03;;;25.60;52.60;;;;;;5128990;28;20382;-50
2022/08/23 19:44:52;;;;;;;4.80;2.25;;;25.50;53.00;;;;;;5130243;28;20103;-48
2022/08/23 19:47:19;;;;;;;6.72;2.65;;;25.50;53.00;;;;;;5130391;28;20447;-48
2022/08/23 19:49:45;;;;;;;7.88;4.35;;;25.50;52.90;;;;;;5129340;28;20034;-50
2022/08/23 19:52:11;;;;;;;12.02;2.63;;;25.50;53.00;;;;;;5131493;27;20065;-49
2022/08/23 19:54:36;;;;;;;9.57;2.10;;;25.50;53.20;;;;;;5130086;28;20027;-48
2022/08/23 19:57:02;;;;;;;7.35;2.95;;;25.50;53.30;;;;;;5129707;28;20138;-50
2022/08/23 19:59:39;;;;;;;5.32;3.03;;;25.50;53.30;;;;;;5129838;28;20390;-50
2022/08/23 20:02:07;;;;;;;6.43;4.40;;;25.50;53.40;;;;;;5130173;28;20098;-49
2022/08/23 20:04:33;;;;;;;10.77;5.07;;;25.60;53.40;;;;;;5130132;28;20020;-50
2022/08/23 20:07:01;;;;;;;9.63;5.38;;;25.50;53.50;;;;;;5128866;28;20057;-52
2022/08/23 20:09:28;;;;;;;12.55;5.47;;;25.50;53.60;;;;;;5118442;28;20479;-48
2022/08/23 20:11:55;;;;;;;10.85;4.90;;;25.50;53.80;;;;;;5116365;28;20023;-48
2022/08/23 20:14:23;;;;;;;10.20;4.60;;;25.50;54.10;;;;;;5116690;28;20112;-52
2022/08/23 20:16:50;;;;;;;11.60;5.57;;;25.50;54.30;;;;;;5115127;28;20468;-49
2022/08/23 20:19:16;;;;;;;13.65;6.10;;;25.50;54.60;;;;;;5116011;28;20032;-52
2022/08/23 20:21:42;;;;;;;8.52;4.10;;;25.50;54.50;;;;;;5116185;28;20467;-48
2022/08/23 20:24:10;;;;;;;7.03;4.20;;;25.50;54.80;;;;;;5116121;28;20483;-49
2022/08/23 20:26:39;;;;;;;6.88;4.22;;;25.40;55.20;;;;;;5114935;28;20023;-47
2022/08/23 20:29:09;;;;;;;7.22;3.72;;;25.40;55.40;;;;;;5116299;28;20099;-49
2022/08/23 20:31:38;;;;;;;6.63;3.17;;;25.40;55.50;;;;;;5116104;28;20034;-48
2022/08/23 20:34:05;;;;;;;6.07;4.13;;;25.40;55.40;;;;;;5115834;28;20353;-49
2022/08/23 20:36:32;;;;;;;8.85;3.30;;;25.30;55.50;;;;;;5116049;28;20383;-48
2022/08/23 20:38:59;;;;;;;7.30;2.78;;;25.20;56.20;;;;;;5116972;28;20501;-47
2022/08/23 20:41:27;;;;;;;16.67;5.50;;;25.10;56.50;;;;;;5116512;28;20046;-47
2022/08/23 20:43:53;;;;;;;7.68;3.28;;;25.00;56.80;;;;;;5116163;28;20020;-48
2022/08/23 20:46:19;;;;;;;7.88;3.42;;;25.00;56.90;;;;;;5114928;28;20402;-47
2022/08/23 20:48:45;;;;;;;6.13;2.78;;;25.00;57.00;;;;;;5115122;28;20019;-49
2022/08/23 20:51:11;;;;;;;4.88;3.20;;;24.90;57.10;;;;;;5116359;28;20020;-47
2022/08/23 20:53:38;;;;;;;7.38;3.65;;;24.80;57.50;;;;;;5116101;28;20020;-49
2022/08/23 20:56:04;;;;;;;4.22;2.17;;;24.80;58.00;;;;;;5115700;28;20011;-48
2022/08/23 20:58:30;;;;;;;8.38;2.63;;;24.70;58.20;;;;;;5116775;28;20335;-47
2022/08/23 21:00:55;;;;;;;5.07;2.42;;;24.70;58.50;;;;;;5115654;28;20023;-50
2022/08/23 21:03:22;;;;;;;6.57;4.45;;;24.60;58.50;;;;;;5114375;28;20026;-49
2022/08/23 21:05:47;;;;;;;10.52;3.90;;;24.60;58.60;;;;;;5116057;28;20031;-50
2022/08/23 21:08:14;;;;;;;11.80;5.20;;;24.60;58.50;;;;;;5115423;28;20024;-48
2022/08/23 21:10:40;;;;;;;7.20;5.22;;;24.70;58.50;;;;;;5115862;28;20024;-48
2022/08/23 21:13:05;;;;;;;7.25;3.55;;;24.70;58.70;;;;;;5115476;28;20020;-48
2022/08/23 21:15:31;;;;;;;8.65;3.95;;;24.60;59.10;;;;;;5115549;28;20034;-49
2022/08/23 21:17:57;;;;;;;9.70;4.50;;;24.40;59.60;;;;;;5115393;28;20353;-47
2022/08/23 21:20:23;;;;;;;10.43;4.50;;;24.40;59.90;;;;;;5112773;28;20019;-47
2022/08/23 21:22:49;;;;;;;7.45;3.78;;;24.30;60.40;;;;;;5115310;28;20106;-48
2022/08/23 21:25:15;;;;;;;6.45;4.05;;;24.30;60.60;;;;;;5115244;28;20099;-50
2022/08/23 21:27:40;;;;;;;10.52;5.63;;;24.30;60.80;;;;;;5115208;28;20078;-46
2022/08/23 21:30:08;;;;;;;8.68;4.07;;;24.30;60.80;;;;;;5115049;28;20034;-48
2022/08/23 21:32:34;;;;;;;6.88;3.17;;;24.40;60.60;;;;;;5114977;28;20085;-50
2022/08/23 21:35:01;;;;;;;5.60;3.90;;;24.40;60.50;;;;;;5115071;28;20023;-49
2022/08/23 21:37:27;;;;;;;12.25;3.72;;;24.30;60.60;;;;;;5115067;28;20460;-50
2022/08/23 21:39:53;;;;;;;9.35;4.10;;;24.30;60.80;;;;;;5115332;28;20023;-48
2022/08/23 21:42:19;;;;;;;7.95;3.70;;;24.30;61.20;;;;;;5114910;28;20398;-47
2022/08/23 21:44:45;;;;;;;11.23;4.85;;;24.20;61.20;;;;;;5113525;28;20030;-47
2022/08/23 21:47:12;;;;;;;11.98;5.30;;;24.10;61.40;;;;;;5114646;28;20023;-48
2022/08/23 21:49:38;;;;;;;10.90;5.35;;;24.20;61.20;;;;;;5113212;28;20470;-51
2022/08/23 21:52:05;;;;;;;5.78;3.45;;;24.10;61.20;;;;;;5114458;28;20490;-47
2022/08/23 21:54:30;;;;;;;6.57;3.47;;;24.20;61.50;;;;;;5114375;28;20471;-52
2022/08/23 21:56:56;;;;;;;7.30;3.25;;;24.10;61.60;;;;;;5114245;28;20145;-48
2022/08/23 21:59:22;;;;;;;6.75;4.03;;;24.10;61.70;;;;;;5114616;28;20027;-47
2022/08/23 22:01:48;;;;;;;7.28;3.42;;;24.00;62.10;;;;;;5112918;28;20031;-48
2022/08/23 22:04:14;;;;;;;11.20;4.13;;;23.90;62.20;;;;;;5114126;28;20028;-47
2022/08/23 22:06:42;;;;;;;5.72;3.25;;;23.90;62.50;;;;;;5114309;28;20379;-49
2022/08/23 22:09:10;;;;;;;5.85;3.70;;;23.80;62.70;;;;;;5112605;28;20042;-50
2022/08/23 22:11:39;;;;;;;6.03;3.20;;;23.80;62.90;;;;;;5114038;28;20104;-48
2022/08/23 22:14:07;;;;;;;6.95;3.22;;;23.70;63.20;;;;;;5114324;28;20383;-50
2022/08/23 22:16:33;;;;;;;3.70;2.40;;;23.60;63.60;;;;;;5113802;28;20028;-46
2022/08/23 22:18:59;;;;;;;12.52;3.75;;;23.50;63.80;;;;;;5113970;28;20328;-38
2022/08/23 22:21:25;;;;;;;16.00;4.38;;;23.40;64.20;;;;;;5113068;28;20020;-39
2022/08/23 22:23:51;;;;;;;4.90;3.47;;;23.40;64.50;;;;;;5113846;28;20028;-39
2022/08/23 22:26:17;;;;;;;8.25;3.55;;;23.30;64.70;;;;;;5114102;28;20098;-40
2022/08/23 22:28:43;;;;;;;8.18;3.63;;;23.30;64.90;;;;;;5113988;28;20080;-39
2022/08/23 22:31:11;;;;;;;5.75;3.38;;;23.30;65.10;;;;;;5113823;28;20050;-41
2022/08/23 22:33:38;;;;;;;6.47;3.50;;;23.20;65.60;;;;;;5113994;28;20585;-39
2022/08/23 22:36:11;;;;;;;10.43;4.32;;;23.10;65.90;;;;;;5112407;28;20479;-39
2022/08/23 22:38:37;;;;;;;10.02;4.13;;;23.10;66.00;;;;;;5113910;28;20456;-39
2022/08/23 22:41:04;;;;;;;4.70;3.10;;;23.10;66.20;;;;;;5112400;28;20049;-39
2022/08/23 22:43:29;;;;;;;5.90;3.45;;;23.00;66.30;;;;;;5113990;28;20039;-39
2022/08/23 22:45:59;;;;;;;6.25;2.83;;;23.00;66.40;;;;;;5113699;28;20076;-39
2022/08/23 22:48:25;;;;;;;9.93;4.38;;;22.90;66.60;;;;;;5113863;28;20073;-40
2022/08/23 22:51:06;;;;;;;9.88;3.65;;;22.80;66.90;;;;;;5113003;28;20410;-38
2022/08/23 22:53:33;;;;;;;8.65;3.22;;;22.80;67.20;;;;;;5113864;28;20035;-39
2022/08/23 22:55:59;;;;;;;9.20;3.95;;;22.80;67.50;;;;;;5112446;28;20034;-40
2022/08/23 22:58:25;;;;;;;9.43;4.10;;;22.80;67.50;;;;;;5113409;28;20028;-38
2022/08/23 23:00:50;;;;;;;5.93;3.42;;;22.80;67.20;;;;;;5113460;28;20019;-39
2022/08/23 23:03:16;;;;;;;6.32;4.40;;;22.80;67.20;;;;;;5113505;28;20464;-38
2022/08/23 23:05:42;;;;;;;12.50;5.85;;;22.80;67.10;;;;;;5113721;28;20023;-39
2022/08/23 23:08:26;;;;;;;11.93;6.63;;;22.80;67.50;;;;;;5112037;28;20023;-38
2022/08/23 23:10:58;;;;;;;7.28;4.95;;;22.70;67.40;;;;;;5113215;28;20102;-38
2022/08/23 23:13:26;;;;;;;5.47;3.03;;;22.60;67.80;;;;;;5112148;28;20024;-39
2022/08/23 23:15:53;;;;;;;6.10;3.15;;;22.60;68.10;;;;;;5113331;28;20016;-39
2022/08/23 23:18:21;;;;;;;12.27;3.55;;;22.50;68.20;;;;;;5113446;28;20357;-39
2022/08/23 23:20:47;;;;;;;5.20;2.85;;;22.40;68.20;;;;;;5112219;28;20046;-39
2022/08/23 23:23:20;;;;;;;6.93;3.25;;;22.40;68.50;;;;;;5113413;28;20016;-38
2022/08/23 23:25:46;;;;;;;6.70;3.25;;;22.40;68.60;;;;;;5113298;28;20047;-38
2022/08/23 23:28:13;;;;;;;5.07;3.15;;;22.30;68.80;;;;;;5111788;28;20466;-39
2022/08/23 23:30:41;;;;;;;7.93;3.58;;;22.30;69.00;;;;;;5113292;28;20019;-39
2022/08/23 23:33:06;;;;;;;12.88;4.70;;;22.30;69.00;;;;;;5113143;28;20127;-39
2022/08/23 23:35:33;;;;;;;8.95;3.75;;;22.20;69.30;;;;;;5113193;28;20030;-39
2022/08/23 23:38:00;;;;;;;7.78;4.45;;;22.20;69.40;;;;;;5113105;28;20023;-40
2022/08/23 23:40:26;;;;;;;8.30;3.53;;;22.20;69.60;;;;;;5113241;28;20049;-40
2022/08/23 23:42:52;;;;;;;11.52;3.50;;;22.20;69.70;;;;;;5113279;28;20374;-39
2022/08/23 23:45:19;;;;;;;4.28;3.47;;;22.20;69.80;;;;;;5117040;28;20028;-38
2022/08/23 23:47:45;;;;;;;7.60;3.45;;;22.10;70.00;;;;;;5116930;28;20058;-38
2022/08/23 23:50:11;;;;;;;6.72;3.58;;;22.00;70.30;;;;;;5116938;28;20456;-39
2022/08/23 23:52:38;;;;;;;7.65;4.28;;;22.00;70.20;;;;;;5116653;28;20028;-39
2022/08/23 23:55:06;;;;;;;6.65;2.95;;;22.00;70.30;;;;;;5115473;28;20039;-39
2022/08/23 23:57:31;;;;;;;5.03;3.38;;;22.00;70.20;;;;;;5115243;28;20051;-39
2022/08/23 23:59:58;;;;;;;6.00;3.65;;;22.00;70.20;;;;;;5116717;28;20032;-40
